sensor_id;sensor_type;location;lat;lon;timestamp;temperature;humidity
5128;DHT22;2582;48.770;9.190;2022-12-08T00:00:12;5.00;99.90
5128;DHT22;2582;48.770;9.190;2022-12-08T00:02:37;5.00;99.90
5128;DHT22;2582;48.770;9.190;2022-12-08T00:05:03;5.10;99.90
5128;DHT22;2582;48.770;9.190;2022-12-08T00:07:47;5.20;99.90
5128;DHT22;2582;48.770;9.190;2022-12-08T00:10:31;5.20;99.90
5128;DHT22;2582;48.770;9.190;2022-12-08T00:12:56;5.20;99.90
5128;DHT22;2582;48.770;9.190;2022-12-08T00:15:22;5.10;99.90
5128;DHT22;2582;48.770;9.190;2022-12-08T00:17:48;5.10;99.90
5128;DHT22;2582;48.770;9.190;2022-12-08T00:20:13;5.10;99.90
5128;DHT22;2582;48.770;9.190;2022-12-08T00:22:39;5.10;99.90
5128;DHT22;2582;48.770;9.190;2022-12-08T00:25:05;5.10;99.90
5128;DHT22;2582;48.770;9.190;2022-12-08T00:27:30;5.10;99.90
5128;DHT22;2582;48.770;9.190;2022-12-08T00:29:56;5.00;99.90
5128;DHT22;2582;48.770;9.190;2022-12-08T00:32:21;4.90;99.90
5128;DHT22;2582;48.770;9.190;2022-12-08T00:34:47;4.90;99.90
5128;DHT22;2582;48.770;9.190;2022-12-08T00:37:13;4.90;99.90
5128;DHT22;2582;48.770;9.190;2022-12-08T00:39:38;4.70;99.90
5128;DHT22;2582;48.770;9.190;2022-12-08T00:42:04;4.70;99.90
5128;DHT22;2582;48.770;9.190;2022-12-08T00:44:40;4.50;99.90
5128;DHT22;2582;48.770;9.190;2022-12-08T00:47:05;4.50;99.90
5128;DHT22;2582;48.770;9.190;2022-12-08T00:49:31;4.30;99.90
5128;DHT22;2582;48.770;9.190;2022-12-08T00:51:56;4.20;99.90
5128;DHT22;2582;48.770;9.190;2022-12-08T00:54:22;4.10;99.90
5128;DHT22;2582;48.770;9.190;2022-12-08T00:56:48;4.00;99.90
5128;DHT22;2582;48.770;9.190;2022-12-08T00:59:13;3.90;99.90
5128;DHT22;2582;48.770;9.190;2022-12-08T01:01:39;3.80;99.90
5128;DHT22;2582;48.770;9.190;2022-12-08T01:04:07;3.60;99.90
5128;DHT22;2582;48.770;9.190;2022-12-08T01:06:34;3.60;99.90
5128;DHT22;2582;48.770;9.190;2022-12-08T01:09:00;3.60;99.90
5128;DHT22;2582;48.770;9.190;2022-12-08T01:11:26;3.50;99.90
5128;DHT22;2582;48.770;9.190;2022-12-08T01:13:53;3.40;99.90
5128;DHT22;2582;48.770;9.190;2022-12-08T01:16:24;3.50;99.90
5128;DHT22;2582;48.770;9.190;2022-12-08T01:18:50;3.50;99.90
5128;DHT22;2582;48.770;9.190;2022-12-08T01:21:16;3.50;99.90
5128;DHT22;2582;48.770;9.190;2022-12-08T01:23:42;3.50;99.90
5128;DHT22;2582;48.770;9.190;2022-12-08T01:26:10;3.50;99.90
5128;DHT22;2582;48.770;9.190;2022-12-08T01:28:36;3.40;99.90
5128;DHT22;2582;48.770;9.190;2022-12-08T01:31:03;3.10;99.90
5128;DHT22;2582;48.770;9.190;2022-12-08T01:33:28;3.10;99.90
5128;DHT22;2582;48.770;9.190;2022-12-08T01:35:54;3.00;99.90
5128;DHT22;2582;48.770;9.190;2022-12-08T01:38:21;3.00;99.90
5128;DHT22;2582;48.770;9.190;2022-12-08T01:40:47;2.90;99.90
5128;DHT22;2582;48.770;9.190;2022-12-08T01:43:18;2.90;99.90
5128;DHT22;2582;48.770;9.190;2022-12-08T01:45:44;2.90;99.90
5128;DHT22;2582;48.770;9.190;2022-12-08T01:48:15;2.90;99.90
5128;DHT22;2582;48.770;9.190;2022-12-08T01:50:44;2.80;99.90
5128;DHT22;2582;48.770;9.190;2022-12-08T01:53:15;2.80;99.90
5128;DHT22;2582;48.770;9.190;2022-12-08T01:55:46;2.80;99.90
5128;DHT22;2582;48.770;9.190;2022-12-08T01:58:41;2.70;99.90
5128;DHT22;2582;48.770;9.190;2022-12-08T02:01:08;2.70;99.90
5128;DHT22;2582;48.770;9.190;2022-12-08T02:03:39;2.70;99.90
5128;DHT22;2582;48.770;9.190;2022-12-08T02:06:06;2.70;99.90
5128;DHT22;2582;48.770;9.190;2022-12-08T02:08:33;2.60;99.90
5128;DHT22;2582;48.770;9.190;2022-12-08T02:11:00;2.70;99.90
5128;DHT22;2582;48.770;9.190;2022-12-08T02:13:26;2.70;99.90
5128;DHT22;2582;48.770;9.190;2022-12-08T02:16:03;2.60;99.90
5128;DHT22;2582;48.770;9.190;2022-12-08T02:22:03;2.60;99.90
5128;DHT22;2582;48.770;9.190;2022-12-08T02:41:31;2.40;99.90
5128;DHT22;2582;48.770;9.190;2022-12-08T02:44:07;2.40;99.90
5128;DHT22;2582;48.770;9.190;2022-12-08T02:46:54;2.30;99.90
5128;DHT22;2582;48.770;9.190;2022-12-08T02:49:30;2.40;99.90
5128;DHT22;2582;48.770;9.190;2022-12-08T02:54:43;2.30;99.90
5128;DHT22;2582;48.770;9.190;2022-12-08T03:00:24;2.40;99.90
5128;DHT22;2582;48.770;9.190;2022-12-08T03:05:41;2.40;99.90
5128;DHT22;2582;48.770;9.190;2022-12-08T03:08:16;2.40;99.90
5128;DHT22;2582;48.770;9.190;2022-12-08T03:10:52;2.40;99.90
5128;DHT22;2582;48.770;9.190;2022-12-08T03:13:23;2.40;99.90
5128;DHT22;2582;48.770;9.190;2022-12-08T03:15:52;2.40;99.90
5128;DHT22;2582;48.770;9.190;2022-12-08T03:18:22;2.30;99.90
5128;DHT22;2582;48.770;9.190;2022-12-08T03:20:50;2.30;99.90
5128;DHT22;2582;48.770;9.190;2022-12-08T03:23:17;2.30;99.90
5128;DHT22;2582;48.770;9.190;2022-12-08T03:25:58;2.20;99.90
5128;DHT22;2582;48.770;9.190;2022-12-08T03:28:25;2.30;99.90
5128;DHT22;2582;48.770;9.190;2022-12-08T03:30:54;2.20;99.90
5128;DHT22;2582;48.770;9.190;2022-12-08T03:33:29;2.10;99.90
5128;DHT22;2582;48.770;9.190;2022-12-08T03:35:56;2.10;99.90
5128;DHT22;2582;48.770;9.190;2022-12-08T03:38:23;2.10;99.90
5128;DHT22;2582;48.770;9.190;2022-12-08T03:40:48;2.10;99.90
5128;DHT22;2582;48.770;9.190;2022-12-08T03:43:34;2.10;99.90
5128;DHT22;2582;48.770;9.190;2022-12-08T03:46:00;2.10;99.90
5128;DHT22;2582;48.770;9.190;2022-12-08T03:48:25;2.00;99.90
5128;DHT22;2582;48.770;9.190;2022-12-08T03:50:51;2.00;99.90
5128;DHT22;2582;48.770;9.190;2022-12-08T03:53:16;2.00;99.90
5128;DHT22;2582;48.770;9.190;2022-12-08T03:55:42;1.90;99.90
5128;DHT22;2582;48.770;9.190;2022-12-08T03:58:07;2.00;99.90
5128;DHT22;2582;48.770;9.190;2022-12-08T04:00:33;2.10;99.90
5128;DHT22;2582;48.770;9.190;2022-12-08T04:02:58;2.20;99.90
5128;DHT22;2582;48.770;9.190;2022-12-08T04:05:24;2.20;99.90
5128;DHT22;2582;48.770;9.190;2022-12-08T04:07:49;2.10;99.90
5128;DHT22;2582;48.770;9.190;2022-12-08T04:10:15;2.10;99.90
5128;DHT22;2582;48.770;9.190;2022-12-08T04:12:41;2.00;99.90
5128;DHT22;2582;48.770;9.190;2022-12-08T04:15:07;2.00;99.90
5128;DHT22;2582;48.770;9.190;2022-12-08T04:17:32;2.00;99.90
5128;DHT22;2582;48.770;9.190;2022-12-08T04:19:58;1.90;99.90
5128;DHT22;2582;48.770;9.190;2022-12-08T04:22:23;1.80;99.90
5128;DHT22;2582;48.770;9.190;2022-12-08T04:24:49;1.80;99.90
5128;DHT22;2582;48.770;9.190;2022-12-08T04:27:15;1.80;99.90
5128;DHT22;2582;48.770;9.190;2022-12-08T04:29:40;1.80;99.90
5128;DHT22;2582;48.770;9.190;2022-12-08T04:32:06;1.80;99.90
5128;DHT22;2582;48.770;9.190;2022-12-08T04:34:32;1.90;99.90
5128;DHT22;2582;48.770;9.190;2022-12-08T04:36:57;1.90;99.90
5128;DHT22;2582;48.770;9.190;2022-12-08T04:39:23;1.90;99.90
5128;DHT22;2582;48.770;9.190;2022-12-08T04:41:49;1.90;99.90
5128;DHT22;2582;48.770;9.190;2022-12-08T04:44:14;1.90;99.90
5128;DHT22;2582;48.770;9.190;2022-12-08T04:46:40;1.90;99.90
5128;DHT22;2582;48.770;9.190;2022-12-08T04:49:05;2.00;99.90
5128;DHT22;2582;48.770;9.190;2022-12-08T04:51:31;2.10;99.90
5128;DHT22;2582;48.770;9.190;2022-12-08T04:53:56;2.10;99.90
5128;DHT22;2582;48.770;9.190;2022-12-08T04:56:22;2.00;99.90
5128;DHT22;2582;48.770;9.190;2022-12-08T04:58:48;2.00;99.90
5128;DHT22;2582;48.770;9.190;2022-12-08T05:01:13;1.90;99.90
5128;DHT22;2582;48.770;9.190;2022-12-08T05:03:39;1.80;99.90
5128;DHT22;2582;48.770;9.190;2022-12-08T05:06:05;1.80;99.90
5128;DHT22;2582;48.770;9.190;2022-12-08T05:08:31;1.80;99.90
5128;DHT22;2582;48.770;9.190;2022-12-08T05:11:05;1.80;99.90
5128;DHT22;2582;48.770;9.190;2022-12-08T05:13:31;1.80;99.90
5128;DHT22;2582;48.770;9.190;2022-12-08T05:16:11;1.80;99.90
5128;DHT22;2582;48.770;9.190;2022-12-08T05:18:37;1.80;99.90
5128;DHT22;2582;48.770;9.190;2022-12-08T05:21:04;1.80;99.90
5128;DHT22;2582;48.770;9.190;2022-12-08T05:23:30;1.80;99.90
5128;DHT22;2582;48.770;9.190;2022-12-08T05:25:55;1.70;99.90
5128;DHT22;2582;48.770;9.190;2022-12-08T05:28:21;1.80;99.90
5128;DHT22;2582;48.770;9.190;2022-12-08T05:30:46;1.80;99.90
5128;DHT22;2582;48.770;9.190;2022-12-08T05:33:12;1.80;99.90
5128;DHT22;2582;48.770;9.190;2022-12-08T05:35:38;1.70;99.90
5128;DHT22;2582;48.770;9.190;2022-12-08T05:38:04;1.70;99.90
5128;DHT22;2582;48.770;9.190;2022-12-08T05:40:30;1.80;99.90
5128;DHT22;2582;48.770;9.190;2022-12-08T05:42:55;1.80;99.90
5128;DHT22;2582;48.770;9.190;2022-12-08T05:45:21;1.80;99.90
5128;DHT22;2582;48.770;9.190;2022-12-08T05:47:47;1.70;99.90
5128;DHT22;2582;48.770;9.190;2022-12-08T05:50:12;1.70;99.90
5128;DHT22;2582;48.770;9.190;2022-12-08T05:52:38;1.70;99.90
5128;DHT22;2582;48.770;9.190;2022-12-08T05:55:04;1.80;99.90
5128;DHT22;2582;48.770;9.190;2022-12-08T05:57:29;1.80;99.90
5128;DHT22;2582;48.770;9.190;2022-12-08T05:59:55;1.80;99.90
5128;DHT22;2582;48.770;9.190;2022-12-08T06:02:21;1.80;99.90
5128;DHT22;2582;48.770;9.190;2022-12-08T06:04:46;1.90;99.90
5128;DHT22;2582;48.770;9.190;2022-12-08T06:07:12;1.90;99.90
5128;DHT22;2582;48.770;9.190;2022-12-08T06:09:38;1.90;99.90
5128;DHT22;2582;48.770;9.190;2022-12-08T06:12:03;1.90;99.90
5128;DHT22;2582;48.770;9.190;2022-12-08T06:14:29;1.80;99.90
5128;DHT22;2582;48.770;9.190;2022-12-08T06:16:54;1.80;99.90
5128;DHT22;2582;48.770;9.190;2022-12-08T06:19:20;1.60;99.90
5128;DHT22;2582;48.770;9.190;2022-12-08T06:21:45;1.60;99.90
5128;DHT22;2582;48.770;9.190;2022-12-08T06:24:11;1.60;99.90
5128;DHT22;2582;48.770;9.190;2022-12-08T06:26:37;1.60;99.90
5128;DHT22;2582;48.770;9.190;2022-12-08T06:29:04;1.60;99.90
5128;DHT22;2582;48.770;9.190;2022-12-08T06:31:30;1.60;99.90
5128;DHT22;2582;48.770;9.190;2022-12-08T06:33:55;1.70;99.90
5128;DHT22;2582;48.770;9.190;2022-12-08T06:36:24;1.60;99.90
5128;DHT22;2582;48.770;9.190;2022-12-08T06:38:49;1.60;99.90
5128;DHT22;2582;48.770;9.190;2022-12-08T06:41:16;1.60;99.90
5128;DHT22;2582;48.770;9.190;2022-12-08T06:43:42;1.70;99.90
5128;DHT22;2582;48.770;9.190;2022-12-08T06:46:10;1.60;99.90
5128;DHT22;2582;48.770;9.190;2022-12-08T06:48:36;1.60;99.90
5128;DHT22;2582;48.770;9.190;2022-12-08T06:53:32;1.50;99.90
5128;DHT22;2582;48.770;9.190;2022-12-08T06:55:57;1.50;99.90
5128;DHT22;2582;48.770;9.190;2022-12-08T06:58:23;1.60;99.90
5128;DHT22;2582;48.770;9.190;2022-12-08T07:00:49;1.70;99.90
5128;DHT22;2582;48.770;9.190;2022-12-08T07:03:14;1.70;99.90
5128;DHT22;2582;48.770;9.190;2022-12-08T07:05:40;1.60;99.90
5128;DHT22;2582;48.770;9.190;2022-12-08T07:08:06;1.70;99.90
5128;DHT22;2582;48.770;9.190;2022-12-08T07:10:33;1.70;99.90
5128;DHT22;2582;48.770;9.190;2022-12-08T07:12:59;1.70;99.90
5128;DHT22;2582;48.770;9.190;2022-12-08T07:15:24;1.80;99.90
5128;DHT22;2582;48.770;9.190;2022-12-08T07:17:50;1.80;99.90
5128;DHT22;2582;48.770;9.190;2022-12-08T07:20:16;1.80;99.90
5128;DHT22;2582;48.770;9.190;2022-12-08T07:22:48;1.80;99.90
5128;DHT22;2582;48.770;9.190;2022-12-08T07:25:14;1.80;99.90
5128;DHT22;2582;48.770;9.190;2022-12-08T07:27:40;1.80;99.90
5128;DHT22;2582;48.770;9.190;2022-12-08T07:30:06;1.70;99.90
5128;DHT22;2582;48.770;9.190;2022-12-08T07:32:32;1.70;99.90
5128;DHT22;2582;48.770;9.190;2022-12-08T07:34:57;1.70;99.90
5128;DHT22;2582;48.770;9.190;2022-12-08T07:37:23;1.80;99.90
5128;DHT22;2582;48.770;9.190;2022-12-08T07:39:48;1.70;99.90
5128;DHT22;2582;48.770;9.190;2022-12-08T07:42:14;1.80;99.90
5128;DHT22;2582;48.770;9.190;2022-12-08T07:44:40;1.80;99.90
5128;DHT22;2582;48.770;9.190;2022-12-08T07:47:05;1.80;99.90
5128;DHT22;2582;48.770;9.190;2022-12-08T07:49:31;1.90;99.90
5128;DHT22;2582;48.770;9.190;2022-12-08T07:51:57;2.00;99.90
5128;DHT22;2582;48.770;9.190;2022-12-08T07:54:23;2.10;99.90
5128;DHT22;2582;48.770;9.190;2022-12-08T07:56:48;2.00;99.90
5128;DHT22;2582;48.770;9.190;2022-12-08T07:59:14;2.00;99.90
5128;DHT22;2582;48.770;9.190;2022-12-08T08:01:39;2.00;99.90
5128;DHT22;2582;48.770;9.190;2022-12-08T08:04:05;2.00;99.90
5128;DHT22;2582;48.770;9.190;2022-12-08T08:06:32;2.10;99.90
5128;DHT22;2582;48.770;9.190;2022-12-08T08:08:58;2.10;99.90
5128;DHT22;2582;48.770;9.190;2022-12-08T08:11:24;2.20;99.90
5128;DHT22;2582;48.770;9.190;2022-12-08T08:13:50;2.20;99.90
5128;DHT22;2582;48.770;9.190;2022-12-08T08:16:16;2.30;99.90
5128;DHT22;2582;48.770;9.190;2022-12-08T08:18:42;2.30;99.90
5128;DHT22;2582;48.770;9.190;2022-12-08T08:21:10;2.20;99.90
5128;DHT22;2582;48.770;9.190;2022-12-08T08:23:35;2.20;99.90
5128;DHT22;2582;48.770;9.190;2022-12-08T08:26:02;2.30;99.90
5128;DHT22;2582;48.770;9.190;2022-12-08T08:28:28;2.30;99.90
5128;DHT22;2582;48.770;9.190;2022-12-08T08:30:55;2.30;99.90
5128;DHT22;2582;48.770;9.190;2022-12-08T08:33:21;2.20;99.90
5128;DHT22;2582;48.770;9.190;2022-12-08T08:35:47;2.10;99.90
5128;DHT22;2582;48.770;9.190;2022-12-08T08:38:13;2.00;99.90
5128;DHT22;2582;48.770;9.190;2022-12-08T08:40:39;2.10;99.90
5128;DHT22;2582;48.770;9.190;2022-12-08T08:43:05;2.10;99.90
5128;DHT22;2582;48.770;9.190;2022-12-08T08:45:31;2.10;99.90
5128;DHT22;2582;48.770;9.190;2022-12-08T08:47:57;2.20;99.90
5128;DHT22;2582;48.770;9.190;2022-12-08T08:50:23;2.20;99.90
5128;DHT22;2582;48.770;9.190;2022-12-08T08:52:49;2.30;99.90
5128;DHT22;2582;48.770;9.190;2022-12-08T08:55:15;2.40;99.90
5128;DHT22;2582;48.770;9.190;2022-12-08T08:57:41;2.60;99.90
5128;DHT22;2582;48.770;9.190;2022-12-08T09:00:07;2.80;99.90
5128;DHT22;2582;48.770;9.190;2022-12-08T09:02:34;2.90;99.90
5128;DHT22;2582;48.770;9.190;2022-12-08T09:05:00;3.00;99.90
5128;DHT22;2582;48.770;9.190;2022-12-08T09:07:26;3.10;99.90
5128;DHT22;2582;48.770;9.190;2022-12-08T09:09:51;3.20;99.90
5128;DHT22;2582;48.770;9.190;2022-12-08T09:12:17;3.30;99.90
5128;DHT22;2582;48.770;9.190;2022-12-08T09:14:43;3.40;99.90
5128;DHT22;2582;48.770;9.190;2022-12-08T09:17:10;3.40;99.90
5128;DHT22;2582;48.770;9.190;2022-12-08T09:19:36;3.60;99.90
5128;DHT22;2582;48.770;9.190;2022-12-08T09:22:02;3.60;99.90
5128;DHT22;2582;48.770;9.190;2022-12-08T09:24:27;3.60;99.90
5128;DHT22;2582;48.770;9.190;2022-12-08T09:26:53;3.70;99.90
5128;DHT22;2582;48.770;9.190;2022-12-08T09:29:18;3.70;99.90
5128;DHT22;2582;48.770;9.190;2022-12-08T09:31:44;3.70;99.90
5128;DHT22;2582;48.770;9.190;2022-12-08T09:34:11;3.80;99.90
5128;DHT22;2582;48.770;9.190;2022-12-08T09:36:37;3.90;99.90
5128;DHT22;2582;48.770;9.190;2022-12-08T09:39:03;3.90;99.90
5128;DHT22;2582;48.770;9.190;2022-12-08T09:41:34;3.90;99.90
5128;DHT22;2582;48.770;9.190;2022-12-08T09:46:56;3.90;99.90
5128;DHT22;2582;48.770;9.190;2022-12-08T09:49:37;3.90;99.90
5128;DHT22;2582;48.770;9.190;2022-12-08T09:52:05;4.00;99.90
5128;DHT22;2582;48.770;9.190;2022-12-08T09:54:37;3.90;99.90
5128;DHT22;2582;48.770;9.190;2022-12-08T09:57:07;3.80;99.90
5128;DHT22;2582;48.770;9.190;2022-12-08T09:59:38;3.80;99.90
5128;DHT22;2582;48.770;9.190;2022-12-08T10:02:19;4.00;99.90
5128;DHT22;2582;48.770;9.190;2022-12-08T10:04:45;4.10;99.90
5128;DHT22;2582;48.770;9.190;2022-12-08T10:07:15;4.00;99.90
5128;DHT22;2582;48.770;9.190;2022-12-08T10:09:58;4.20;99.90
5128;DHT22;2582;48.770;9.190;2022-12-08T10:18:00;4.10;99.90
5128;DHT22;2582;48.770;9.190;2022-12-08T10:20:35;4.20;99.90
5128;DHT22;2582;48.770;9.190;2022-12-08T10:23:31;4.40;99.90
5128;DHT22;2582;48.770;9.190;2022-12-08T10:26:01;4.30;99.90
5128;DHT22;2582;48.770;9.190;2022-12-08T10:28:27;4.30;99.90
5128;DHT22;2582;48.770;9.190;2022-12-08T10:30:52;4.50;99.90
5128;DHT22;2582;48.770;9.190;2022-12-08T10:33:19;4.70;99.90
5128;DHT22;2582;48.770;9.190;2022-12-08T10:35:56;4.90;99.90
5128;DHT22;2582;48.770;9.190;2022-12-08T10:38:28;4.90;99.90
5128;DHT22;2582;48.770;9.190;2022-12-08T10:41:02;4.80;99.90
5128;DHT22;2582;48.770;9.190;2022-12-08T10:43:29;4.70;99.90
5128;DHT22;2582;48.770;9.190;2022-12-08T10:48:52;5.10;99.90
5128;DHT22;2582;48.770;9.190;2022-12-08T10:51:30;5.40;99.90
5128;DHT22;2582;48.770;9.190;2022-12-08T10:53:59;6.40;99.90
5128;DHT22;2582;48.770;9.190;2022-12-08T10:56:30;8.60;99.90
5128;DHT22;2582;48.770;9.190;2022-12-08T10:59:13;10.30;99.90
5128;DHT22;2582;48.770;9.190;2022-12-08T11:01:41;11.80;99.60
5128;DHT22;2582;48.770;9.190;2022-12-08T11:04:37;11.80;98.10
5128;DHT22;2582;48.770;9.190;2022-12-08T11:07:05;12.70;96.90
5128;DHT22;2582;48.770;9.190;2022-12-08T11:09:45;12.40;95.20
5128;DHT22;2582;48.770;9.190;2022-12-08T11:12:20;12.40;95.10
5128;DHT22;2582;48.770;9.190;2022-12-08T11:14:47;13.30;94.00
5128;DHT22;2582;48.770;9.190;2022-12-08T11:20:20;15.60;89.20
5128;DHT22;2582;48.770;9.190;2022-12-08T11:22:53;14.70;86.60
5128;DHT22;2582;48.770;9.190;2022-12-08T11:25:22;14.80;87.60
5128;DHT22;2582;48.770;9.190;2022-12-08T11:27:50;15.10;84.80
5128;DHT22;2582;48.770;9.190;2022-12-08T11:30:37;14.00;85.60
5128;DHT22;2582;48.770;9.190;2022-12-08T11:33:20;13.80;87.50
5128;DHT22;2582;48.770;9.190;2022-12-08T11:36:08;14.60;85.30
5128;DHT22;2582;48.770;9.190;2022-12-08T11:38:40;15.20;82.80
5128;DHT22;2582;48.770;9.190;2022-12-08T11:41:13;15.60;82.40
5128;DHT22;2582;48.770;9.190;2022-12-08T11:44:36;16.10;80.90
5128;DHT22;2582;48.770;9.190;2022-12-08T11:46:52;17.10;76.40
5128;DHT22;2582;48.770;9.190;2022-12-08T11:49:28;15.70;79.30
5128;DHT22;2582;48.770;9.190;2022-12-08T11:52:01;15.90;78.20
5128;DHT22;2582;48.770;9.190;2022-12-08T11:54:34;15.40;78.70
5128;DHT22;2582;48.770;9.190;2022-12-08T11:57:02;14.00;79.10
5128;DHT22;2582;48.770;9.190;2022-12-08T11:59:35;12.30;83.70
5128;DHT22;2582;48.770;9.190;2022-12-08T12:02:12;11.30;89.30
5128;DHT22;2582;48.770;9.190;2022-12-08T12:09:54;9.30;94.60
5128;DHT22;2582;48.770;9.190;2022-12-08T12:12:40;9.40;94.90
5128;DHT22;2582;48.770;9.190;2022-12-08T12:18:00;10.50;93.20
5128;DHT22;2582;48.770;9.190;2022-12-08T12:20:54;9.90;94.00
5128;DHT22;2582;48.770;9.190;2022-12-08T12:25:57;9.30;95.50
5128;DHT22;2582;48.770;9.190;2022-12-08T12:28:27;9.10;96.30
5128;DHT22;2582;48.770;9.190;2022-12-08T12:31:07;8.50;96.60
5128;DHT22;2582;48.770;9.190;2022-12-08T12:33:35;8.20;97.30
5128;DHT22;2582;48.770;9.190;2022-12-08T12:36:05;8.20;97.40
5128;DHT22;2582;48.770;9.190;2022-12-08T12:38:35;7.80;97.60
5128;DHT22;2582;48.770;9.190;2022-12-08T12:41:45;7.80;98.20
5128;DHT22;2582;48.770;9.190;2022-12-08T13:02:25;7.90;98.80
5128;DHT22;2582;48.770;9.190;2022-12-08T13:08:02;7.50;99.30
5128;DHT22;2582;48.770;9.190;2022-12-08T13:10:38;7.80;99.20
5128;DHT22;2582;48.770;9.190;2022-12-08T13:16:33;7.60;99.50
5128;DHT22;2582;48.770;9.190;2022-12-08T13:18:41;7.60;99.00
5128;DHT22;2582;48.770;9.190;2022-12-08T13:21:12;7.70;99.10
5128;DHT22;2582;48.770;9.190;2022-12-08T13:26:26;7.80;99.40
5128;DHT22;2582;48.770;9.190;2022-12-08T13:31:43;7.80;99.60
5128;DHT22;2582;48.770;9.190;2022-12-08T13:34:14;7.70;99.50
5128;DHT22;2582;48.770;9.190;2022-12-08T13:51:27;7.00;99.90
5128;DHT22;2582;48.770;9.190;2022-12-08T13:53:29;7.10;99.90
5128;DHT22;2582;48.770;9.190;2022-12-08T13:55:59;7.30;99.90
5128;DHT22;2582;48.770;9.190;2022-12-08T13:58:35;7.20;99.90
5128;DHT22;2582;48.770;9.190;2022-12-08T14:01:09;7.20;99.90
5128;DHT22;2582;48.770;9.190;2022-12-08T14:03:56;7.30;99.90
5128;DHT22;2582;48.770;9.190;2022-12-08T14:06:29;7.40;99.90
5128;DHT22;2582;48.770;9.190;2022-12-08T14:08:58;7.30;99.90
5128;DHT22;2582;48.770;9.190;2022-12-08T14:11:35;7.30;99.90
5128;DHT22;2582;48.770;9.190;2022-12-08T14:14:17;7.20;99.90
5128;DHT22;2582;48.770;9.190;2022-12-08T14:16:55;7.30;99.90
5128;DHT22;2582;48.770;9.190;2022-12-08T14:19:24;7.10;99.90
5128;DHT22;2582;48.770;9.190;2022-12-08T14:21:57;7.00;99.90
5128;DHT22;2582;48.770;9.190;2022-12-08T14:24:24;7.00;99.90
5128;DHT22;2582;48.770;9.190;2022-12-08T14:26:53;6.90;99.90
5128;DHT22;2582;48.770;9.190;2022-12-08T14:32:00;6.80;99.90
5128;DHT22;2582;48.770;9.190;2022-12-08T14:34:26;6.90;99.90
5128;DHT22;2582;48.770;9.190;2022-12-08T14:36:52;6.90;99.90
5128;DHT22;2582;48.770;9.190;2022-12-08T14:39:19;6.90;99.90
5128;DHT22;2582;48.770;9.190;2022-12-08T14:42:00;6.80;99.90
5128;DHT22;2582;48.770;9.190;2022-12-08T14:44:29;6.80;99.90
5128;DHT22;2582;48.770;9.190;2022-12-08T14:47:03;6.90;99.90
5128;DHT22;2582;48.770;9.190;2022-12-08T14:49:34;7.00;99.90
5128;DHT22;2582;48.770;9.190;2022-12-08T14:52:00;7.00;99.90
5128;DHT22;2582;48.770;9.190;2022-12-08T14:54:28;7.00;99.90
5128;DHT22;2582;48.770;9.190;2022-12-08T14:56:55;6.90;99.90
5128;DHT22;2582;48.770;9.190;2022-12-08T14:59:26;6.90;99.90
5128;DHT22;2582;48.770;9.190;2022-12-08T15:02:42;6.90;99.90
5128;DHT22;2582;48.770;9.190;2022-12-08T15:05:04;6.70;99.90
5128;DHT22;2582;48.770;9.190;2022-12-08T15:07:44;6.30;99.90
5128;DHT22;2582;48.770;9.190;2022-12-08T15:10:18;6.30;99.90
5128;DHT22;2582;48.770;9.190;2022-12-08T15:15:47;6.70;99.90
5128;DHT22;2582;48.770;9.190;2022-12-08T15:18:37;6.70;99.90
5128;DHT22;2582;48.770;9.190;2022-12-08T15:21:05;6.70;99.90
5128;DHT22;2582;48.770;9.190;2022-12-08T15:23:40;6.70;99.90
5128;DHT22;2582;48.770;9.190;2022-12-08T15:26:07;6.80;99.90
5128;DHT22;2582;48.770;9.190;2022-12-08T15:28:33;6.80;99.90
5128;DHT22;2582;48.770;9.190;2022-12-08T15:30:58;6.90;99.90
5128;DHT22;2582;48.770;9.190;2022-12-08T15:33:25;6.90;99.90
5128;DHT22;2582;48.770;9.190;2022-12-08T15:35:51;6.90;99.90
5128;DHT22;2582;48.770;9.190;2022-12-08T15:38:23;6.90;99.90
5128;DHT22;2582;48.770;9.190;2022-12-08T15:40:50;6.80;99.90
5128;DHT22;2582;48.770;9.190;2022-12-08T15:43:16;6.70;99.90
5128;DHT22;2582;48.770;9.190;2022-12-08T15:45:41;6.70;99.90
5128;DHT22;2582;48.770;9.190;2022-12-08T15:48:35;6.70;99.90
5128;DHT22;2582;48.770;9.190;2022-12-08T15:50:59;6.70;99.90
5128;DHT22;2582;48.770;9.190;2022-12-08T15:53:24;6.70;99.90
5128;DHT22;2582;48.770;9.190;2022-12-08T15:55:50;6.60;99.90
5128;DHT22;2582;48.770;9.190;2022-12-08T15:58:22;6.40;99.90
5128;DHT22;2582;48.770;9.190;2022-12-08T16:00:49;6.30;99.90
5128;DHT22;2582;48.770;9.190;2022-12-08T16:03:24;6.30;99.90
5128;DHT22;2582;48.770;9.190;2022-12-08T16:05:52;6.30;99.90
5128;DHT22;2582;48.770;9.190;2022-12-08T16:08:17;6.30;99.90
5128;DHT22;2582;48.770;9.190;2022-12-08T16:10:44;6.20;99.90
5128;DHT22;2582;48.770;9.190;2022-12-08T16:13:15;6.20;99.90
5128;DHT22;2582;48.770;9.190;2022-12-08T16:16:00;6.20;99.90
5128;DHT22;2582;48.770;9.190;2022-12-08T16:18:29;6.20;99.90
5128;DHT22;2582;48.770;9.190;2022-12-08T16:20:55;6.30;99.90
5128;DHT22;2582;48.770;9.190;2022-12-08T16:23:21;6.40;99.90
5128;DHT22;2582;48.770;9.190;2022-12-08T16:25:47;6.30;99.90
5128;DHT22;2582;48.770;9.190;2022-12-08T16:28:12;6.30;99.90
5128;DHT22;2582;48.770;9.190;2022-12-08T16:30:38;6.30;99.90
5128;DHT22;2582;48.770;9.190;2022-12-08T16:33:04;6.20;99.90
5128;DHT22;2582;48.770;9.190;2022-12-08T16:35:29;5.90;99.90
5128;DHT22;2582;48.770;9.190;2022-12-08T16:37:55;6.00;99.90
5128;DHT22;2582;48.770;9.190;2022-12-08T16:40:21;5.90;99.90
5128;DHT22;2582;48.770;9.190;2022-12-08T16:42:47;5.90;99.90
5128;DHT22;2582;48.770;9.190;2022-12-08T16:45:22;5.90;99.90
5128;DHT22;2582;48.770;9.190;2022-12-08T16:47:59;6.00;99.90
5128;DHT22;2582;48.770;9.190;2022-12-08T16:50:33;6.10;99.90
5128;DHT22;2582;48.770;9.190;2022-12-08T16:53:02;6.00;99.90
5128;DHT22;2582;48.770;9.190;2022-12-08T16:55:28;6.00;99.90
5128;DHT22;2582;48.770;9.190;2022-12-08T16:57:54;6.00;99.90
5128;DHT22;2582;48.770;9.190;2022-12-08T17:00:25;6.10;99.90
5128;DHT22;2582;48.770;9.190;2022-12-08T17:02:51;6.10;99.90
5128;DHT22;2582;48.770;9.190;2022-12-08T17:05:19;6.00;99.90
5128;DHT22;2582;48.770;9.190;2022-12-08T17:07:47;6.00;99.90
5128;DHT22;2582;48.770;9.190;2022-12-08T17:10:16;6.10;99.90
5128;DHT22;2582;48.770;9.190;2022-12-08T17:12:42;6.10;99.90
5128;DHT22;2582;48.770;9.190;2022-12-08T17:15:11;5.80;99.90
5128;DHT22;2582;48.770;9.190;2022-12-08T17:17:38;5.70;99.90
5128;DHT22;2582;48.770;9.190;2022-12-08T17:20:10;5.70;99.90
5128;DHT22;2582;48.770;9.190;2022-12-08T17:22:37;5.70;99.90
5128;DHT22;2582;48.770;9.190;2022-12-08T17:25:02;5.70;99.90
5128;DHT22;2582;48.770;9.190;2022-12-08T17:27:28;5.50;99.90
5128;DHT22;2582;48.770;9.190;2022-12-08T17:29:54;5.60;99.90
5128;DHT22;2582;48.770;9.190;2022-12-08T17:32:19;5.60;99.90
5128;DHT22;2582;48.770;9.190;2022-12-08T17:34:46;5.60;99.90
5128;DHT22;2582;48.770;9.190;2022-12-08T17:37:11;5.80;99.90
5128;DHT22;2582;48.770;9.190;2022-12-08T17:39:37;5.90;99.90
5128;DHT22;2582;48.770;9.190;2022-12-08T17:42:04;5.90;99.90
5128;DHT22;2582;48.770;9.190;2022-12-08T17:44:30;6.00;99.90
5128;DHT22;2582;48.770;9.190;2022-12-08T17:46:58;6.00;99.90
5128;DHT22;2582;48.770;9.190;2022-12-08T17:49:25;6.00;99.90
5128;DHT22;2582;48.770;9.190;2022-12-08T17:51:55;6.10;99.90
5128;DHT22;2582;48.770;9.190;2022-12-08T17:54:21;6.10;99.90
5128;DHT22;2582;48.770;9.190;2022-12-08T17:56:47;6.20;99.90
5128;DHT22;2582;48.770;9.190;2022-12-08T17:59:13;6.10;99.90
5128;DHT22;2582;48.770;9.190;2022-12-08T18:01:39;6.20;99.90
5128;DHT22;2582;48.770;9.190;2022-12-08T18:04:06;5.90;99.90
5128;DHT22;2582;48.770;9.190;2022-12-08T18:06:33;5.90;99.90
5128;DHT22;2582;48.770;9.190;2022-12-08T18:09:00;5.90;99.90
5128;DHT22;2582;48.770;9.190;2022-12-08T18:11:27;5.80;99.90
5128;DHT22;2582;48.770;9.190;2022-12-08T18:13:54;5.90;99.90